createdAt,value
2023-03-23T15:59:26.165Z,72.16
2023-03-23T16:01:59.929Z,72.29
2023-03-23T16:04:33.885Z,73.22
2023-03-23T16:07:08.150Z,73.70
2023-03-23T16:09:42.734Z,74.28
2023-03-23T16:12:16.221Z,75.39
2023-03-23T16:14:48.941Z,76.40
2023-03-23T16:17:23.624Z,77.65
2023-03-23T16:19:56.879Z,77.57
2023-03-23T16:22:30.123Z,76.98
2023-03-23T16:25:02.674Z,76.42
2023-03-23T16:27:35.342Z,75.99
2023-03-23T16:30:17.979Z,76.24
2023-03-23T16:32:51.935Z,76.92
2023-03-23T16:35:23.545Z,77.30
2023-03-23T16:38:07.317Z,77.30
2023-03-23T16:40:43.571Z,76.62
2023-03-23T16:43:21.396Z,76.03
2023-03-23T16:45:59.865Z,75.91
2023-03-23T16:48:32.878Z,75.08
2023-03-23T16:51:06.917Z,75.07
2023-03-23T16:53:39.739Z,75.01
2023-03-23T16:56:12.714Z,74.52
2023-03-23T16:58:46.096Z,75.38
2023-03-23T17:01:16.854Z,75.89
2023-03-23T17:03:55.664Z,75.92
2023-03-23T17:06:29.666Z,76.46
2023-03-23T17:09:02.171Z,76.87
2023-03-23T17:11:36.127Z,77.26
2023-03-23T17:14:08.570Z,77.21
2023-03-23T17:16:41.404Z,77.08
2023-03-23T17:19:14.759Z,77.72
2023-03-23T17:21:47.316Z,78.37
2023-03-23T17:24:19.898Z,78.89
2023-03-23T17:26:52.768Z,77.47
2023-03-23T17:29:25.737Z,76.12
2023-03-23T17:31:58.385Z,74.87
2023-03-23T17:34:31.170Z,74.81
2023-03-23T17:37:05.126Z,74.54
2023-03-23T17:39:43.274Z,74.21
2023-03-23T17:42:16.937Z,74.06
2023-03-23T17:44:49.594Z,73.04
2023-03-23T17:47:24.272Z,73.14
2023-03-23T17:49:56.993Z,73.77
2023-03-23T17:52:30.056Z,73.71
2023-03-23T17:55:02.690Z,73.46
2023-03-23T17:57:35.435Z,72.87
2023-03-23T18:00:10.930Z,71.97
2023-03-23T18:02:44.210Z,71.80
2023-03-23T18:05:16.936Z,71.63
2023-03-23T18:07:49.577Z,70.85
2023-03-23T18:10:22.180Z,70.96
2023-03-23T18:12:55.087Z,71.14
2023-03-23T18:15:28.325Z,71.09
2023-03-23T18:18:16.195Z,71.55
2023-03-23T18:20:48.838Z,71.77
2023-03-23T18:23:22.868Z,72.56
2023-03-23T18:25:58.105Z,73.22
2023-03-23T18:28:32.577Z,73.49
2023-03-23T18:31:09.636Z,73.54
2023-03-23T18:33:46.929Z,74.22
2023-03-23T18:36:21.480Z,73.87
2023-03-23T18:38:56.479Z,74.27
2023-03-23T18:41:29.094Z,74.95
2023-03-23T18:44:02.548Z,76.53
2023-03-23T18:46:35.451Z,77.05
2023-03-23T18:49:06.868Z,77.27
2023-03-23T18:51:39.845Z,77.31
2023-03-23T18:55:09.188Z,77.23
2023-03-23T19:10:05.598Z,77.25
2023-03-23T19:12:38.928Z,76.65
2023-03-23T19:15:12.770Z,77.40
2023-03-23T19:17:45.762Z,78.23
2023-03-23T19:20:37.415Z,79.05
2023-03-23T19:23:14.617Z,78.97
2023-03-23T19:25:47.370Z,79.57
2023-03-23T19:30:58.492Z,79.79
2023-03-23T19:33:32.750Z,80.95
2023-03-23T19:36:12.091Z,80.73
2023-03-23T19:38:47.028Z,80.31
2023-03-23T19:41:19.752Z,79.89
2023-03-23T19:43:52.561Z,79.53
2023-03-23T19:46:26.454Z,79.63
2023-03-23T19:49:04.024Z,79.94
2023-03-23T19:51:36.981Z,79.51
2023-03-23T19:54:10.093Z,79.56
2023-03-23T19:56:44.379Z,78.30
2023-03-23T19:59:19.172Z,78.43
2023-03-23T20:01:56.466Z,78.27
2023-03-23T20:04:29.916Z,78.60
2023-03-23T20:07:02.797Z,79.01
2023-03-23T20:09:35.855Z,80.48
2023-03-23T20:12:09.835Z,81.17
2023-03-23T20:14:45.352Z,81.89
2023-03-23T20:17:20.756Z,82.29
2023-03-23T20:19:53.627Z,82.09
2023-03-23T20:22:26.319Z,81.87
2023-03-23T20:25:00.518Z,81.99
2023-03-23T20:27:33.663Z,82.29
2023-03-23T20:30:08.420Z,82.27
2023-03-23T20:32:42.920Z,82.23
2023-03-23T20:35:17.069Z,81.17
2023-03-23T20:37:52.988Z,81.75
2023-03-23T20:40:30.166Z,81.46
2023-03-23T20:43:04.070Z,81.09
2023-03-23T20:45:36.959Z,81.74
2023-03-23T20:48:10.046Z,81.99
2023-03-23T20:50:43.107Z,82.19
2023-03-23T20:53:16.180Z,82.63
2023-03-23T20:55:48.818Z,83.02
2023-03-23T20:58:25.538Z,83.45
2023-03-23T21:00:59.825Z,83.60
2023-03-23T21:03:35.002Z,82.68
2023-03-23T21:06:08.547Z,83.29
2023-03-23T21:08:43.511Z,83.46
2023-03-23T21:11:21.858Z,83.36
2023-03-23T21:13:57.527Z,83.31
2023-03-23T21:16:30.817Z,84.32
2023-03-23T21:19:04.312Z,84.56
2023-03-23T21:21:38.034Z,84.48
2023-03-23T21:24:11.384Z,84.82
2023-03-23T21:26:44.933Z,84.94
2023-03-23T21:29:18.089Z,84.75
2023-03-23T21:32:06.984Z,84.97
2023-03-23T21:34:41.402Z,85.26
2023-03-23T21:37:15.670Z,84.44
2023-03-23T21:39:50.541Z,84.53
2023-03-23T21:42:30.736Z,85.38
2023-03-23T21:45:03.961Z,84.19
2023-03-23T21:47:36.647Z,84.29
2023-03-23T21:50:12.201Z,84.42
2023-03-23T21:52:45.434Z,85.00
2023-03-23T21:55:18.389Z,85.30
2023-03-23T21:57:50.950Z,86.39
2023-03-23T22:00:27.333Z,87.08
2023-03-23T22:03:00.100Z,87.93
2023-03-23T22:05:33.460Z,88.27
2023-03-23T22:08:07.303Z,88.34
2023-03-23T22:11:00.740Z,88.77
2023-03-23T22:13:36.057Z,88.95
2023-03-23T22:16:10.970Z,88.61
2023-03-23T22:18:45.651Z,88.98
2023-03-23T22:21:19.819Z,88.82
2023-03-23T22:23:53.449Z,89.29
2023-03-23T22:26:27.548Z,89.99
2023-03-23T22:29:01.739Z,89.95
2023-03-23T22:31:36.897Z,90.20
2023-03-23T22:34:09.951Z,90.56
2023-03-23T22:36:43.694Z,90.05
2023-03-23T22:39:16.391Z,89.03
2023-03-23T22:41:49.727Z,89.14
2023-03-23T22:44:22.817Z,88.61
2023-03-23T22:46:55.525Z,89.19
2023-03-23T22:49:28.505Z,88.93
2023-03-23T22:52:01.780Z,88.76
2023-03-23T22:54:34.613Z,89.19
2023-03-23T22:57:07.762Z,89.28
2023-03-23T22:59:41.359Z,89.36
2023-03-23T23:02:12.520Z,89.33
2023-03-23T23:04:45.283Z,89.55
2023-03-23T23:07:18.420Z,89.32
2023-03-23T23:09:51.778Z,89.25
2023-03-23T23:12:26.201Z,90.16
2023-03-23T23:14:59.886Z,90.20
2023-03-23T23:17:32.454Z,89.73
2023-03-23T23:20:07.535Z,90.15
2023-03-23T23:22:40.463Z,89.71
2023-03-23T23:25:13.229Z,89.39
2023-03-23T23:27:46.349Z,89.39
2023-03-23T23:30:20.158Z,89.27
2023-03-23T23:32:53.144Z,89.26
2023-03-23T23:35:26.669Z,89.38
2023-03-23T23:37:59.560Z,89.40
2023-03-23T23:40:33.458Z,89.53
2023-03-23T23:43:07.257Z,89.71
2023-03-23T23:45:40.365Z,90.09
2023-03-23T23:48:13.868Z,90.83
2023-03-23T23:50:46.938Z,91.25
2023-03-23T23:53:26.028Z,91.30
2023-03-23T23:55:58.682Z,91.01
2023-03-23T23:58:31.846Z,91.36
